Moses Lake, Washington
Current Conditions -  °F | °C
As of 4:52 PM on Friday 19 Dec 2014 (Local Time) from KMWH Reporting Station
Clear Clear  
Wind Chill: 37°   Ceiling: Unl
Heat Index: 37°   Visibility: 9mi
Dew Point: 35°   Wind: 3mph
Humidity: 93%   Direction: 150°SSE
Pressure: 29.97"   Gusts: NA
Location:  47.13°N, 119.27°W
Report Text: KMWH 200052Z 15003KT 9SM CLR 03/02 A2997 RMK AO2 SLP158 T00280017
Loading
Personal Weather Stations






























Interactive Weather Map New forecast layout! Learn more

10-Day Weather Forecast

Advertisements
Track Severe Weather on mobile